createdAt,value
2018-04-27T00:01:07.930Z,16.67
2018-04-27T00:03:35.418Z,16.20
2018-04-27T00:06:02.922Z,16.40
2018-04-27T00:08:30.453Z,16.92
2018-04-27T00:10:57.948Z,15.30
2018-04-27T00:13:25.465Z,16.60
2018-04-27T00:15:53.719Z,17.35
2018-04-27T00:18:21.218Z,15.75
2018-04-27T00:20:49.495Z,15.73
2018-04-27T00:23:16.997Z,15.90
2018-04-27T00:25:45.262Z,17.17
2018-04-27T00:28:12.762Z,16.90
2018-04-27T00:30:40.261Z,18.40
2018-04-27T00:33:07.777Z,17.98
2018-04-27T00:35:36.073Z,17.98
2018-04-27T00:38:04.332Z,17.70
2018-04-27T00:40:31.832Z,17.60
2018-04-27T00:43:00.079Z,17.98
2018-04-27T00:45:27.577Z,17.98
2018-04-27T00:47:57.028Z,19.35
2018-04-27T00:50:24.537Z,18.25
2018-04-27T00:53:07.942Z,16.35
2018-04-27T00:55:35.439Z,17.10
2018-04-27T00:58:06.941Z,18.10
2018-04-27T01:00:34.434Z,18.05
2018-04-27T01:03:02.729Z,17.70
2018-04-27T01:05:30.233Z,17.70
2018-04-27T01:07:57.738Z,18.73
2018-04-27T01:10:25.248Z,19.42
2018-04-27T01:12:52.733Z,18.23
2018-04-27T01:15:20.241Z,19.90
2018-04-27T01:17:47.747Z,19.08
2018-04-27T01:20:16.034Z,18.80
2018-04-27T01:22:44.345Z,19.50
2018-04-27T01:25:11.855Z,18.98
2018-04-27T01:27:39.365Z,20.30
2018-04-27T01:30:07.658Z,19.77
2018-04-27T01:32:35.926Z,19.77
2018-04-27T01:35:03.426Z,19.02
2018-04-27T01:37:30.938Z,19.35
2018-04-27T01:39:59.212Z,19.73
2018-04-27T01:42:26.734Z,20.12
2018-04-27T01:44:54.988Z,19.98
2018-04-27T01:47:22.498Z,20.50
2018-04-27T01:49:50.783Z,20.20
2018-04-27T01:52:19.063Z,20.90
2018-04-27T01:54:47.336Z,19.77
2018-04-27T01:57:14.827Z,19.42
2018-04-27T01:59:43.133Z,19.87
2018-04-27T02:02:10.683Z,18.92
2018-04-27T02:04:38.250Z,19.02
2018-04-27T02:07:05.749Z,19.60
2018-04-27T02:09:33.226Z,19.95
2018-04-27T02:12:00.684Z,19.15
2018-04-27T02:14:28.169Z,18.35
2018-04-27T02:16:55.629Z,19.05
2018-04-27T02:19:23.103Z,20.52
2018-04-27T02:21:50.571Z,19.02
2018-04-27T02:24:18.029Z,18.48
2018-04-27T02:26:46.289Z,19.37
2018-04-27T02:29:13.834Z,18.80
2018-04-27T02:31:41.295Z,19.12
2018-04-27T02:34:08.760Z,18.85
2018-04-27T02:36:36.245Z,19.15
2018-04-27T02:39:03.706Z,20.05
2018-04-27T02:41:31.191Z,18.40
2018-04-27T02:43:58.673Z,18.80
2018-04-27T02:46:26.227Z,19.33
2018-04-27T02:48:53.795Z,19.52
2018-04-27T02:51:21.282Z,17.75
2018-04-27T02:53:48.746Z,19.10
2018-04-27T02:56:16.322Z,19.05
2018-04-27T02:58:43.800Z,18.70
2018-04-27T03:01:11.355Z,18.17
2018-04-27T03:03:38.829Z,20.27
2018-04-27T03:06:06.308Z,19.12
2018-04-27T03:08:33.766Z,19.52
2018-04-27T03:11:01.254Z,18.92
2018-04-27T03:13:28.708Z,19.12
2018-04-27T03:15:56.181Z,18.75
2018-04-27T03:18:23.664Z,18.98
2018-04-27T03:20:51.136Z,18.50
2018-04-27T03:23:18.592Z,17.08
2018-04-27T03:25:46.065Z,17.77
2018-04-27T03:28:13.522Z,18.27
2018-04-27T03:30:41.015Z,18.40
2018-04-27T03:33:08.479Z,17.58
2018-04-27T03:35:35.953Z,17.10
2018-04-27T03:38:03.446Z,19.27
2018-04-27T03:40:30.906Z,17.73
2018-04-27T03:42:59.164Z,18.10
2018-04-27T03:45:26.707Z,17.58
2018-04-27T03:47:54.883Z,17.90
2018-04-27T03:50:22.350Z,17.80
2018-04-27T03:52:49.836Z,17.80
2018-04-27T03:55:17.292Z,17.37
2018-04-27T03:57:44.754Z,16.67
2018-04-27T04:00:24.066Z,17.20
2018-04-27T04:03:03.990Z,16.67
2018-04-27T04:05:32.391Z,16.30
2018-04-27T04:07:59.868Z,16.77
2018-04-27T04:10:28.865Z,16.52
2018-04-27T04:12:56.359Z,17.05
2018-04-27T04:15:23.916Z,17.15
2018-04-27T04:17:51.387Z,16.17
2018-04-27T04:20:18.878Z,16.50
2018-04-27T04:22:47.112Z,16.52
2018-04-27T04:25:14.566Z,16.67
2018-04-27T04:27:42.056Z,16.00
2018-04-27T04:30:09.531Z,16.40
2018-04-27T04:32:37.012Z,16.00
2018-04-27T04:35:04.781Z,17.17
2018-04-27T04:37:32.261Z,16.62
2018-04-27T04:39:59.841Z,16.80
2018-04-27T04:42:27.308Z,16.45
2018-04-27T04:44:54.792Z,17.15
2018-04-27T04:47:22.289Z,16.98
2018-04-27T04:49:49.749Z,16.17
2018-04-27T04:52:17.977Z,16.30
2018-04-27T04:54:45.480Z,16.12
2018-04-27T04:57:12.926Z,15.77
2018-04-27T04:59:40.406Z,15.50
2018-04-27T05:02:07.900Z,15.90
2018-04-27T05:04:35.708Z,15.90
2018-04-27T05:07:03.319Z,16.17
2018-04-27T05:09:30.809Z,15.50
2018-04-27T05:11:58.275Z,15.25
2018-04-27T05:14:25.783Z,15.32
2018-04-27T05:16:54.020Z,14.40
2018-04-27T05:19:21.483Z,15.40
2018-04-27T05:21:48.981Z,15.02
2018-04-27T05:24:16.468Z,14.70
2018-04-27T05:26:43.910Z,14.23
2018-04-27T05:29:11.366Z,13.35
2018-04-27T05:31:38.840Z,12.93
2018-04-27T05:34:06.346Z,12.32
2018-04-27T05:36:33.824Z,12.50
2018-04-27T05:39:02.995Z,13.40
2018-04-27T05:41:30.453Z,12.82
2018-04-27T05:43:57.932Z,12.25
2018-04-27T05:46:25.406Z,12.00
2018-04-27T05:48:52.890Z,11.25
2018-04-27T05:51:20.371Z,11.50
2018-04-27T05:53:49.748Z,11.50
2018-04-27T05:56:17.238Z,10.20
2018-04-27T05:58:44.690Z,9.70
2018-04-27T06:01:12.161Z,9.60
2018-04-27T06:03:51.497Z,10.30
2018-04-27T06:06:18.957Z,9.30
2018-04-27T06:08:46.423Z,9.95
2018-04-27T06:11:13.878Z,9.70
2018-04-27T06:13:41.343Z,9.90
2018-04-27T06:16:09.614Z,9.63
2018-04-27T06:18:37.069Z,9.07
2018-04-27T06:21:04.557Z,8.82
2018-04-27T06:23:32.800Z,9.10
2018-04-27T06:26:00.298Z,8.95
2018-04-27T06:28:27.768Z,7.85
2018-04-27T06:30:56.021Z,8.25
2018-04-27T06:33:23.489Z,8.00
2018-04-27T06:35:50.961Z,8.10
2018-04-27T06:38:18.420Z,8.07
2018-04-27T06:40:45.891Z,7.95
2018-04-27T06:43:13.376Z,7.97
2018-04-27T06:45:40.847Z,8.18
2018-04-27T06:48:08.325Z,7.35
2018-04-27T06:50:35.805Z,7.53
2018-04-27T06:53:03.258Z,7.60
2018-04-27T06:55:30.744Z,8.30
2018-04-27T06:57:58.215Z,7.15
2018-04-27T07:00:25.705Z,6.90
2018-04-27T07:02:53.949Z,6.43
2018-04-27T07:05:21.463Z,6.55
2018-04-27T07:07:48.937Z,6.50
2018-04-27T07:10:17.159Z,6.62
2018-04-27T07:12:44.629Z,6.65
2018-04-27T07:15:12.130Z,7.00
2018-04-27T07:17:39.609Z,6.00
2018-04-27T07:20:07.093Z,5.93
2018-04-27T07:22:34.554Z,5.97
2018-04-27T07:25:02.026Z,5.57
2018-04-27T07:27:29.510Z,5.40
2018-04-27T07:29:57.756Z,5.57
2018-04-27T07:32:25.244Z,5.20
2018-04-27T07:34:52.718Z,5.07
2018-04-27T07:37:20.193Z,4.53
2018-04-27T07:39:47.677Z,5.47
2018-04-27T07:42:15.895Z,4.40
2018-04-27T07:44:43.476Z,4.28
2018-04-27T07:47:10.960Z,4.10
2018-04-27T07:49:38.433Z,4.30
2018-04-27T07:52:05.906Z,4.18
2018-04-27T07:54:33.400Z,4.43
2018-04-27T07:57:00.873Z,4.50
2018-04-27T07:59:28.341Z,2.93
2018-04-27T08:01:55.829Z,3.50
2018-04-27T08:04:24.072Z,3.67
2018-04-27T08:06:51.541Z,4.03
2018-04-27T08:09:19.029Z,3.85
2018-04-27T08:11:46.494Z,4.10
2018-04-27T08:14:13.984Z,4.10
2018-04-27T08:16:41.442Z,4.12
2018-04-27T08:19:08.917Z,4.55
2018-04-27T08:21:36.378Z,3.72
2018-04-27T08:24:03.852Z,4.00
2018-04-27T08:26:31.322Z,4.10
2018-04-27T08:28:58.812Z,3.70
2018-04-27T08:31:27.061Z,4.10
2018-04-27T08:33:54.540Z,4.00
2018-04-27T08:36:22.018Z,3.35
2018-04-27T08:38:49.484Z,3.40
2018-04-27T08:41:16.961Z,3.53
2018-04-27T08:43:44.456Z,3.70
2018-04-27T08:46:12.685Z,3.90
2018-04-27T08:48:40.165Z,4.12
2018-04-27T08:51:07.623Z,3.80
2018-04-27T08:53:35.905Z,3.65
2018-04-27T08:56:03.362Z,3.97
2018-04-27T08:58:30.822Z,3.95
2018-04-27T09:00:58.286Z,4.00
2018-04-27T09:03:25.768Z,3.50
2018-04-27T09:05:53.234Z,3.80
2018-04-27T09:08:20.716Z,4.00
2018-04-27T09:10:48.200Z,4.22
2018-04-27T09:13:15.670Z,4.20
2018-04-27T09:15:43.135Z,4.47
2018-04-27T09:18:10.616Z,4.20
2018-04-27T09:20:38.070Z,4.32
2018-04-27T09:23:05.538Z,4.00
2018-04-27T09:25:33.011Z,4.20
2018-04-27T09:28:00.496Z,4.40
2018-04-27T09:30:27.984Z,4.55
2018-04-27T09:32:55.452Z,4.32
2018-04-27T09:35:22.926Z,5.55
2018-04-27T09:37:50.401Z,4.23
2018-04-27T09:40:17.866Z,4.32
2018-04-27T09:42:45.326Z,4.07
2018-04-27T09:45:12.815Z,4.60
2018-04-27T09:47:40.297Z,4.30
2018-04-27T09:50:08.644Z,4.25
2018-04-27T09:52:36.111Z,4.90
2018-04-27T09:55:04.341Z,4.93
2018-04-27T09:57:32.649Z,4.80
2018-04-27T10:00:00.074Z,4.47
2018-04-27T10:02:27.569Z,4.80
2018-04-27T10:04:55.794Z,4.00
2018-04-27T10:07:23.272Z,4.65
2018-04-27T10:09:51.184Z,4.07
2018-04-27T10:12:18.661Z,4.60
2018-04-27T10:14:46.146Z,4.10
2018-04-27T10:17:14.385Z,4.10
2018-04-27T10:19:41.853Z,4.40
2018-04-27T10:22:09.347Z,4.62
2018-04-27T10:24:36.821Z,4.00
2018-04-27T10:27:04.309Z,4.00
2018-04-27T10:29:33.378Z,3.60
2018-04-27T10:32:00.863Z,3.65
2018-04-27T10:34:28.341Z,3.80
2018-04-27T10:36:55.810Z,4.33
2018-04-27T10:39:23.281Z,4.12
2018-04-27T10:41:50.775Z,4.93
2018-04-27T10:44:19.014Z,4.10
2018-04-27T10:46:46.491Z,4.05
2018-04-27T10:49:13.976Z,4.10
2018-04-27T10:51:41.494Z,4.30
2018-04-27T10:54:08.968Z,4.10
2018-04-27T10:56:36.474Z,5.30
2018-04-27T10:59:03.957Z,4.50
2018-04-27T11:01:31.415Z,4.43
2018-04-27T11:03:58.916Z,4.20
2018-04-27T11:06:26.413Z,4.22
2018-04-27T11:08:53.862Z,4.17
2018-04-27T11:11:22.094Z,4.20
2018-04-27T11:13:49.559Z,4.07
2018-04-27T11:16:17.118Z,4.30
2018-04-27T11:18:44.540Z,4.20
2018-04-27T11:21:12.019Z,4.60
2018-04-27T11:23:40.638Z,3.90
2018-04-27T11:26:08.199Z,3.90
2018-04-27T11:28:35.609Z,4.20
2018-04-27T11:31:03.099Z,3.60
2018-04-27T11:33:30.577Z,3.90
2018-04-27T11:35:58.049Z,3.58
2018-04-27T11:38:25.540Z,3.60
2018-04-27T11:40:53.784Z,3.77
2018-04-27T11:43:21.247Z,3.70
2018-04-27T11:45:48.741Z,3.30
2018-04-27T11:48:16.213Z,3.10
2018-04-27T11:50:43.686Z,3.40
2018-04-27T11:53:11.210Z,3.50
2018-04-27T11:55:38.640Z,3.10
2018-04-27T11:58:06.877Z,3.60
2018-04-27T12:00:34.353Z,3.45
2018-04-27T12:03:01.852Z,2.90
2018-04-27T12:05:29.310Z,2.67
2018-04-27T12:07:56.794Z,3.10
2018-04-27T12:10:24.285Z,3.00
2018-04-27T12:12:52.510Z,3.30
2018-04-27T12:15:19.970Z,3.10
2018-04-27T12:17:47.475Z,2.90
2018-04-27T12:20:14.951Z,3.40
2018-04-27T12:22:42.520Z,2.72
2018-04-27T12:25:09.997Z,2.60
2018-04-27T12:27:37.469Z,2.97
2018-04-27T12:30:04.946Z,2.60
2018-04-27T12:32:32.412Z,2.85
2018-04-27T12:34:59.900Z,3.00
2018-04-27T12:37:27.371Z,2.65
2018-04-27T12:39:55.590Z,2.80
2018-04-27T12:42:23.080Z,2.70
2018-04-27T12:44:50.549Z,2.60
2018-04-27T12:47:18.037Z,2.80
2018-04-27T12:49:45.485Z,2.83
2018-04-27T12:52:12.973Z,2.60
2018-04-27T12:54:40.441Z,2.80
2018-04-27T12:57:07.899Z,2.95
2018-04-27T12:59:35.370Z,2.97
2018-04-27T13:02:02.830Z,2.83
2018-04-27T13:04:30.297Z,2.70
2018-04-27T13:06:57.770Z,2.50
2018-04-27T13:09:25.231Z,2.50
2018-04-27T13:11:52.933Z,2.40
2018-04-27T13:14:20.517Z,2.72
2018-04-27T13:16:47.982Z,2.40
2018-04-27T13:19:15.460Z,2.55
2018-04-27T13:21:42.929Z,2.50
2018-04-27T13:24:10.406Z,2.30
2018-04-27T13:26:37.871Z,2.60
2018-04-27T13:29:05.333Z,2.30
2018-04-27T13:31:32.795Z,2.50
2018-04-27T13:34:00.266Z,2.20
2018-04-27T13:36:27.739Z,2.67
2018-04-27T13:38:55.221Z,2.60
2018-04-27T13:41:23.489Z,2.55
2018-04-27T13:43:50.942Z,2.40
2018-04-27T13:46:19.188Z,2.40
2018-04-27T13:48:47.407Z,2.45
2018-04-27T13:51:14.897Z,2.60
2018-04-27T13:53:42.351Z,2.50
2018-04-27T13:56:09.871Z,2.30
2018-04-27T13:58:37.337Z,2.33
2018-04-27T14:01:04.804Z,2.55
2018-04-27T14:03:32.373Z,2.47
2018-04-27T14:06:00.618Z,2.35
2018-04-27T14:08:28.125Z,2.80
2018-04-27T14:10:55.686Z,2.15
2018-04-27T14:13:23.265Z,2.50
2018-04-27T14:15:50.741Z,2.20
2018-04-27T14:18:18.218Z,1.80
2018-04-27T14:20:46.536Z,2.40
2018-04-27T14:23:13.999Z,2.37
2018-04-27T14:25:41.483Z,2.10
2018-04-27T14:28:08.943Z,2.20
2018-04-27T14:30:36.426Z,2.20
2018-04-27T14:33:03.914Z,2.20
2018-04-27T14:35:31.370Z,2.30
2018-04-27T14:37:58.852Z,2.30
2018-04-27T14:40:26.314Z,2.10
2018-04-27T14:42:53.770Z,2.30
2018-04-27T14:45:21.251Z,2.78
2018-04-27T14:47:49.008Z,2.40
2018-04-27T14:50:16.505Z,2.40
2018-04-27T14:52:43.973Z,2.30
2018-04-27T14:55:11.453Z,2.30
2018-04-27T14:57:39.707Z,2.20
2018-04-27T15:00:07.158Z,2.40
2018-04-27T15:02:35.399Z,2.50
2018-04-27T15:05:02.905Z,2.40
2018-04-27T15:07:30.394Z,2.40
2018-04-27T15:10:02.349Z,2.10
2018-04-27T15:12:29.842Z,2.15
2018-04-27T15:14:58.098Z,2.20
2018-04-27T15:17:25.556Z,2.25
2018-04-27T15:19:53.145Z,2.00
2018-04-27T15:22:20.717Z,2.50
2018-04-27T15:24:48.186Z,2.12
2018-04-27T15:27:15.763Z,3.33
2018-04-27T15:29:43.328Z,3.17
2018-04-27T15:32:10.903Z,3.35
2018-04-27T15:34:38.358Z,3.83
2018-04-27T15:37:05.815Z,2.13
2018-04-27T15:39:33.286Z,2.60
2018-04-27T15:42:00.753Z,2.55
2018-04-27T15:44:28.245Z,2.50
2018-04-27T15:46:55.794Z,2.30
2018-04-27T15:49:23.282Z,2.70
2018-04-27T15:51:50.865Z,2.87
2018-04-27T15:54:18.437Z,2.20
2018-04-27T15:56:45.993Z,2.10
2018-04-27T15:59:13.450Z,2.17
2018-04-27T16:01:40.925Z,2.43
2018-04-27T16:04:08.377Z,3.15
2018-04-27T16:06:35.872Z,3.08
2018-04-27T16:09:03.340Z,2.22
2018-04-27T16:11:30.842Z,2.70
2018-04-27T16:13:59.129Z,2.75
2018-04-27T16:16:28.368Z,3.28
2018-04-27T16:18:56.597Z,3.30
2018-04-27T16:21:24.094Z,15.27
2018-04-27T16:23:52.374Z,6.45
2018-04-27T16:26:30.697Z,57.62
2018-04-27T16:28:58.213Z,32.00
2018-04-27T16:31:25.759Z,40.80
2018-04-27T16:33:53.186Z,31.30
2018-04-27T16:36:20.762Z,17.42
2018-04-27T16:38:48.225Z,4.68
2018-04-27T16:41:15.678Z,2.85
2018-04-27T16:43:43.188Z,89.47
2018-04-27T16:46:10.639Z,9.18
2018-04-27T16:48:38.233Z,13.30
2018-04-27T16:51:05.699Z,6.97
2018-04-27T16:53:33.189Z,6.22
2018-04-27T16:56:01.458Z,12.18
2018-04-27T16:58:28.937Z,11.90
2018-04-27T17:00:57.225Z,12.55
2018-04-27T17:03:24.767Z,25.77
2018-04-27T17:05:52.254Z,13.07
2018-04-27T17:08:19.733Z,6.43
2018-04-27T17:10:47.202Z,3.30
2018-04-27T17:13:14.685Z,6.10
2018-04-27T17:15:42.924Z,6.50
2018-04-27T17:18:10.403Z,3.30
2018-04-27T17:20:37.892Z,2.60
2018-04-27T17:23:05.444Z,4.00
2018-04-27T17:25:32.910Z,3.40
2018-04-27T17:28:00.401Z,11.25
2018-04-27T17:30:27.958Z,29.05
2018-04-27T17:32:55.426Z,4.97
2018-04-27T17:35:23.055Z,7.00
2018-04-27T17:37:50.577Z,10.10
2018-04-27T17:40:18.189Z,10.20
2018-04-27T17:42:45.662Z,3.63
2018-04-27T17:45:13.131Z,4.53
2018-04-27T17:47:40.673Z,4.10
2018-04-27T17:50:08.236Z,10.10
2018-04-27T17:52:35.706Z,9.83
2018-04-27T17:55:03.277Z,8.00
2018-04-27T17:57:31.537Z,4.90
2018-04-27T17:59:59.015Z,4.30
2018-04-27T18:02:26.475Z,14.60
2018-04-27T18:04:53.952Z,4.68
2018-04-27T18:07:21.411Z,5.90
2018-04-27T18:09:48.912Z,3.70
2018-04-27T18:12:16.567Z,3.10
2018-04-27T18:14:43.956Z,3.10
2018-04-27T18:17:11.445Z,2.85
2018-04-27T18:19:39.669Z,3.00
2018-04-27T18:22:07.208Z,3.58
2018-04-27T18:24:35.461Z,3.35
2018-04-27T18:27:03.051Z,2.92
2018-04-27T18:29:30.606Z,3.30
2018-04-27T18:31:58.070Z,3.60
2018-04-27T18:34:25.533Z,6.30
2018-04-27T18:36:53.033Z,3.70
2018-04-27T18:39:20.674Z,4.85
2018-04-27T18:41:48.845Z,8.18
2018-04-27T18:44:16.326Z,5.85
2018-04-27T18:46:43.818Z,6.60
2018-04-27T18:49:11.301Z,6.47
2018-04-27T18:51:38.788Z,9.63
2018-04-27T18:54:07.022Z,8.87
2018-04-27T18:56:37.065Z,7.53
2018-04-27T18:59:04.662Z,9.02
2018-04-27T19:01:32.228Z,4.80
2018-04-27T19:03:59.695Z,4.00
2018-04-27T19:06:27.268Z,4.17
2018-04-27T19:08:54.875Z,3.55
2018-04-27T19:11:23.132Z,3.10
2018-04-27T19:13:50.621Z,3.10
2018-04-27T19:16:18.864Z,3.00
2018-04-27T19:18:46.360Z,3.20
2018-04-27T19:21:24.530Z,3.12
2018-04-27T19:23:52.798Z,2.97
2018-04-27T19:26:21.014Z,2.53
2018-04-27T19:28:48.470Z,2.97
2018-04-27T19:31:15.978Z,6.62
2018-04-27T19:33:43.486Z,11.83
2018-04-27T19:36:11.724Z,25.80
2018-04-27T19:38:39.199Z,22.23
2018-04-27T19:41:07.475Z,9.97
2018-04-27T19:43:34.938Z,8.70
2018-04-27T19:46:02.420Z,5.07
2018-04-27T19:48:30.671Z,3.80
2018-04-27T19:50:58.142Z,4.12
2018-04-27T19:53:25.641Z,4.72
2018-04-27T19:55:53.105Z,4.25
2018-04-27T19:58:20.565Z,4.35
2018-04-27T20:00:48.051Z,7.47
2018-04-27T20:03:15.509Z,4.47
2018-04-27T20:05:43.822Z,9.40
2018-04-27T20:08:11.302Z,8.98
2018-04-27T20:10:38.899Z,6.57
2018-04-27T20:13:06.325Z,5.40
2018-04-27T20:15:38.278Z,6.83
2018-04-27T20:20:57.932Z,3.83
2018-04-27T20:23:26.142Z,4.12
2018-04-27T20:25:53.617Z,5.55
2018-04-27T20:28:21.076Z,5.30
2018-04-27T20:33:39.031Z,3.93
2018-04-27T20:36:07.227Z,10.75
2018-04-27T20:38:34.697Z,33.83
2018-04-27T20:41:02.262Z,11.70
2018-04-27T20:43:29.679Z,12.93
2018-04-27T20:45:57.911Z,12.85
2018-04-27T20:48:26.219Z,5.97
2018-04-27T20:51:15.269Z,6.30
2018-04-27T20:54:00.559Z,6.22
2018-04-27T20:56:28.018Z,6.10
2018-04-27T20:58:55.489Z,4.72
2018-04-27T21:01:22.934Z,4.70
2018-04-27T21:03:53.794Z,4.10
2018-04-27T21:06:22.037Z,4.00
2018-04-27T21:08:49.482Z,3.40
2018-04-27T21:11:16.992Z,3.72
2018-04-27T21:13:44.538Z,3.70
2018-04-27T21:16:12.010Z,4.25
2018-04-27T21:18:39.586Z,5.40
2018-04-27T21:21:07.045Z,5.37
2018-04-27T21:23:34.570Z,5.15
2018-04-27T21:26:02.803Z,4.80
2018-04-27T21:28:31.721Z,4.18
2018-04-27T21:30:59.293Z,4.22
2018-04-27T21:33:27.506Z,4.28
2018-04-27T21:35:55.731Z,3.80
2018-04-27T21:38:46.116Z,4.20
2018-04-27T21:41:32.189Z,3.78
2018-04-27T21:44:06.399Z,4.40
2018-04-27T21:46:33.865Z,5.25
2018-04-27T21:49:02.484Z,4.20
2018-04-27T21:51:34.979Z,4.80
2018-04-27T21:54:05.500Z,7.90
2018-04-27T21:56:32.964Z,7.78
2018-04-27T21:59:07.091Z,9.38
2018-04-27T22:01:34.692Z,6.30
2018-04-27T22:04:04.911Z,7.62
2018-04-27T22:06:32.386Z,10.27
2018-04-27T22:09:07.429Z,10.90
2018-04-27T22:11:40.825Z,8.20
2018-04-27T22:17:27.349Z,5.80
2018-04-27T22:19:54.859Z,5.57
2018-04-27T22:22:22.332Z,5.00
2018-04-27T22:24:52.609Z,4.90
2018-04-27T22:27:24.614Z,4.90
2018-04-27T22:29:56.859Z,7.90
2018-04-27T22:32:25.093Z,12.20
2018-04-27T22:34:57.080Z,31.80
2018-04-27T22:37:24.596Z,40.58
2018-04-27T22:39:52.798Z,30.15
2018-04-27T22:42:31.007Z,21.90
2018-04-27T22:45:13.298Z,19.17
2018-04-27T22:50:34.034Z,9.87
2018-04-27T22:53:01.592Z,7.10
2018-04-27T22:55:29.803Z,5.22
2018-04-27T22:58:09.457Z,5.60
2018-04-27T23:00:44.437Z,7.70
2018-04-27T23:03:12.843Z,8.38
2018-04-27T23:05:40.297Z,6.80
2018-04-27T23:08:08.479Z,6.20
2018-04-27T23:10:43.733Z,6.30
2018-04-27T23:13:23.066Z,5.43
2018-04-27T23:15:51.292Z,5.18
2018-04-27T23:18:19.583Z,5.60
2018-04-27T23:20:49.705Z,5.82
2018-04-27T23:23:17.172Z,6.50
2018-04-27T23:25:51.997Z,7.45
2018-04-27T23:28:19.449Z,8.15
2018-04-27T23:30:47.642Z,9.00
2018-04-27T23:33:15.866Z,9.13
2018-04-27T23:35:46.885Z,8.48
2018-04-27T23:38:15.120Z,9.13
2018-04-27T23:40:42.571Z,8.70
2018-04-27T23:43:11.969Z,8.23
2018-04-27T23:45:39.427Z,7.95
2018-04-27T23:48:07.704Z,7.30
2018-04-27T23:50:35.922Z,7.50
2018-04-27T23:53:03.421Z,7.20
2018-04-27T23:55:30.901Z,7.00
2018-04-27T23:57:58.361Z,7.07
